createdAt,value
2022-12-26T00:01:06.724Z,42.40
2022-12-26T00:03:34.204Z,42.38
2022-12-26T00:06:01.874Z,43.95
2022-12-26T00:08:29.318Z,45.47
2022-12-26T00:10:56.925Z,44.42
2022-12-26T00:13:38.613Z,46.25
2022-12-26T00:16:10.294Z,45.63
2022-12-26T00:18:38.176Z,40.55
2022-12-26T00:21:05.941Z,43.63
2022-12-26T00:23:34.133Z,40.78
2022-12-26T00:26:03.618Z,43.35
2022-12-26T00:28:32.503Z,41.28
2022-12-26T00:31:00.247Z,43.08
2022-12-26T00:33:27.865Z,43.05
2022-12-26T00:35:55.226Z,43.30
2022-12-26T00:38:22.595Z,41.33
2022-12-26T00:40:49.970Z,44.05
2022-12-26T00:43:17.428Z,43.50
2022-12-26T00:45:48.674Z,42.38
2022-12-26T00:48:16.071Z,44.60
2022-12-26T00:50:43.437Z,43.95
2022-12-26T00:53:10.874Z,43.90
2022-12-26T00:55:38.298Z,41.88
2022-12-26T00:58:05.890Z,45.08
2022-12-26T01:00:33.632Z,43.67
2022-12-26T01:03:02.598Z,46.53
2022-12-26T01:05:30.124Z,47.60
2022-12-26T01:08:23.289Z,45.65
2022-12-26T01:10:47.226Z,43.42
2022-12-26T01:13:14.707Z,46.05
2022-12-26T01:15:48.556Z,43.17
2022-12-26T01:18:17.241Z,43.78
2022-12-26T01:20:44.615Z,48.72
2022-12-26T01:23:11.991Z,46.05
2022-12-26T01:26:17.875Z,43.78
2022-12-26T01:28:27.647Z,45.72
2022-12-26T01:30:55.316Z,42.33
2022-12-26T01:33:23.980Z,49.03
2022-12-26T01:35:52.996Z,46.25
2022-12-26T01:38:21.124Z,45.35
2022-12-26T01:43:17.432Z,45.42
2022-12-26T01:48:20.965Z,44.15
2022-12-26T01:50:55.339Z,51.92
2022-12-26T01:53:26.964Z,47.75
2022-12-26T01:55:59.996Z,46.20
2022-12-26T01:58:32.564Z,45.10
2022-12-26T02:01:00.512Z,44.70
2022-12-26T02:03:45.684Z,48.40
2022-12-26T02:06:16.627Z,44.30
2022-12-26T02:08:45.960Z,47.22
2022-12-26T02:11:17.046Z,47.75
2022-12-26T02:13:44.737Z,47.92
2022-12-26T02:16:16.273Z,42.35
2022-12-26T02:18:43.705Z,46.63
2022-12-26T02:21:30.497Z,49.55
2022-12-26T02:24:28.021Z,46.57
2022-12-26T02:27:21.698Z,42.40
2022-12-26T02:30:13.810Z,42.67
2022-12-26T02:32:59.537Z,44.72
2022-12-26T02:35:40.019Z,50.53
2022-12-26T02:38:20.104Z,47.15
2022-12-26T02:40:54.674Z,45.35
2022-12-26T02:43:28.219Z,45.92
2022-12-26T02:46:23.523Z,47.90
2022-12-26T02:48:59.296Z,42.50
2022-12-26T02:51:59.101Z,44.00
2022-12-26T02:54:49.695Z,44.65
2022-12-26T02:57:39.658Z,43.38
2022-12-26T03:00:29.919Z,45.55
2022-12-26T03:03:20.461Z,50.80
2022-12-26T03:06:16.996Z,49.38
2022-12-26T03:09:06.915Z,46.53
2022-12-26T03:11:56.862Z,45.22
2022-12-26T03:14:27.668Z,43.25
2022-12-26T03:17:18.512Z,39.55
2022-12-26T03:20:00.233Z,44.15
2022-12-26T03:22:37.241Z,40.28
2022-12-26T03:25:26.011Z,42.55
2022-12-26T03:27:54.609Z,39.28
2022-12-26T03:30:39.719Z,40.70
2022-12-26T03:33:28.244Z,46.08
2022-12-26T03:35:54.925Z,41.75
2022-12-26T03:38:30.026Z,44.38
2022-12-26T03:41:19.006Z,43.20
2022-12-26T03:44:15.375Z,42.83
2022-12-26T03:47:13.434Z,39.72
2022-12-26T03:50:04.236Z,41.38
2022-12-26T03:52:57.153Z,45.33
2022-12-26T03:55:49.746Z,45.15
2022-12-26T03:58:41.591Z,45.65
2022-12-26T04:01:30.474Z,45.60
2022-12-26T04:04:18.817Z,43.42
2022-12-26T04:07:09.975Z,41.30
2022-12-26T04:09:59.694Z,40.75
2022-12-26T04:12:48.623Z,38.83
2022-12-26T04:15:41.086Z,44.33
2022-12-26T04:18:31.298Z,43.63
2022-12-26T04:21:31.655Z,42.85
2022-12-26T04:24:36.284Z,45.55
2022-12-26T04:27:24.474Z,45.17
2022-12-26T04:30:11.351Z,43.42
2022-12-26T04:33:01.043Z,45.70
2022-12-26T04:35:50.474Z,46.28
2022-12-26T04:38:40.238Z,41.45
2022-12-26T04:41:27.818Z,47.05
2022-12-26T04:44:05.102Z,47.40
2022-12-26T04:46:36.243Z,46.80
2022-12-26T04:49:24.707Z,43.40
2022-12-26T04:51:52.285Z,50.10
2022-12-26T04:54:19.783Z,46.03
2022-12-26T04:56:47.264Z,43.08
2022-12-26T04:59:15.025Z,43.65
2022-12-26T05:02:01.560Z,42.42
2022-12-26T05:04:47.175Z,42.35
2022-12-26T05:07:36.410Z,42.25
2022-12-26T05:12:56.772Z,36.22
2022-12-26T05:15:24.744Z,33.88
2022-12-26T05:20:57.790Z,34.25
2022-12-26T05:23:46.271Z,35.57
2022-12-26T05:26:38.910Z,36.25
2022-12-26T05:29:06.516Z,34.42
2022-12-26T05:34:26.078Z,36.78
2022-12-26T05:36:57.373Z,32.40
2022-12-26T05:39:24.800Z,34.22
2022-12-26T05:41:52.471Z,31.10
2022-12-26T05:47:10.799Z,33.95
2022-12-26T05:52:30.617Z,36.22
2022-12-26T05:54:58.061Z,31.20
2022-12-26T05:57:25.420Z,32.38
2022-12-26T05:59:53.133Z,33.10
2022-12-26T06:02:20.672Z,34.42
2022-12-26T06:04:49.391Z,34.63
2022-12-26T06:07:16.802Z,38.92
2022-12-26T06:09:44.162Z,41.15
2022-12-26T06:12:11.860Z,35.70
2022-12-26T06:14:39.263Z,32.33
2022-12-26T06:17:07.845Z,35.20
2022-12-26T06:19:35.242Z,32.70
2022-12-26T06:22:03.932Z,39.47
2022-12-26T06:24:31.291Z,31.73
2022-12-26T06:26:58.638Z,31.95
2022-12-26T06:29:25.989Z,34.05
2022-12-26T06:31:56.845Z,35.25
2022-12-26T06:34:24.266Z,36.97
2022-12-26T06:36:51.667Z,33.88
2022-12-26T06:39:20.349Z,38.28
2022-12-26T06:41:51.220Z,37.30
2022-12-26T06:44:18.946Z,35.80
2022-12-26T06:46:46.694Z,31.08
2022-12-26T06:49:14.578Z,35.25
2022-12-26T06:51:44.906Z,34.38
2022-12-26T06:54:15.897Z,36.33
2022-12-26T06:56:44.738Z,32.95
2022-12-26T06:59:12.642Z,34.92
2022-12-26T07:01:40.158Z,40.47
2022-12-26T07:04:07.621Z,34.78
2022-12-26T07:06:37.423Z,36.67
2022-12-26T07:09:07.515Z,38.17
2022-12-26T07:11:37.507Z,34.53
2022-12-26T07:14:11.023Z,32.95
2022-12-26T07:19:32.228Z,31.83
2022-12-26T07:21:59.606Z,33.85
2022-12-26T07:24:26.968Z,31.63
2022-12-26T07:26:54.381Z,31.13
2022-12-26T07:29:23.266Z,37.70
2022-12-26T07:34:42.473Z,34.78
2022-12-26T07:37:10.050Z,37.75
2022-12-26T07:39:38.048Z,37.28
2022-12-26T07:44:35.000Z,33.28
2022-12-26T07:47:02.690Z,34.85
2022-12-26T07:52:23.190Z,36.45
2022-12-26T07:54:50.548Z,34.45
2022-12-26T08:00:08.257Z,34.55
2022-12-26T08:02:35.983Z,31.92
2022-12-26T08:05:03.483Z,30.60
2022-12-26T08:07:30.847Z,35.25
2022-12-26T08:09:58.398Z,36.17
2022-12-26T08:12:26.986Z,36.95
2022-12-26T08:14:54.416Z,38.92
2022-12-26T08:20:14.844Z,36.35
2022-12-26T08:22:42.240Z,34.45
2022-12-26T08:25:13.402Z,35.55
2022-12-26T08:27:42.901Z,33.30
2022-12-26T08:30:11.397Z,30.38
2022-12-26T08:32:42.493Z,31.92
2022-12-26T08:35:11.839Z,37.25
2022-12-26T08:37:39.202Z,33.60
2022-12-26T08:40:07.632Z,31.77
2022-12-26T08:42:44.605Z,32.63
2022-12-26T08:45:17.962Z,34.90
2022-12-26T08:47:46.645Z,35.70
2022-12-26T08:50:14.088Z,32.35
2022-12-26T08:52:41.589Z,33.33
2022-12-26T08:55:10.322Z,31.83
2022-12-26T08:57:38.551Z,34.95
2022-12-26T09:00:07.708Z,32.88
2022-12-26T09:03:01.977Z,34.33
2022-12-26T09:08:20.709Z,33.25
2022-12-26T09:10:48.132Z,31.73
2022-12-26T09:13:18.830Z,33.92
2022-12-26T09:15:46.194Z,33.53
2022-12-26T09:18:14.908Z,32.28
2022-12-26T09:20:42.303Z,32.47
2022-12-26T09:23:10.806Z,35.05
2022-12-26T09:28:29.853Z,33.90
2022-12-26T09:31:00.709Z,31.10
2022-12-26T09:33:33.847Z,33.75
2022-12-26T09:36:04.532Z,31.67
2022-12-26T09:38:34.707Z,29.80
2022-12-26T09:41:21.863Z,29.20
2022-12-26T09:44:00.954Z,26.75
2022-12-26T09:46:34.125Z,26.50
2022-12-26T09:49:07.285Z,27.42
2022-12-26T09:51:36.328Z,26.48
2022-12-26T09:54:07.968Z,26.02
2022-12-26T10:02:23.617Z,29.10
2022-12-26T10:04:53.132Z,28.20
2022-12-26T10:16:25.730Z,26.90
2022-12-26T10:19:02.322Z,29.83
2022-12-26T10:24:38.081Z,29.80
2022-12-26T10:27:13.552Z,32.28
2022-12-26T10:29:43.544Z,32.30
2022-12-26T10:32:20.568Z,33.47
2022-12-26T10:34:52.820Z,33.60
2022-12-26T10:37:26.984Z,31.88
2022-12-26T10:39:59.039Z,32.55
2022-12-26T10:42:31.460Z,33.42
2022-12-26T10:47:52.484Z,31.45
2022-12-26T10:50:27.850Z,32.42
2022-12-26T10:52:58.041Z,33.13
2022-12-26T10:55:34.786Z,32.30
2022-12-26T10:58:07.893Z,34.35
2022-12-26T11:00:35.628Z,29.88
2022-12-26T11:03:05.706Z,36.03
2022-12-26T11:08:28.796Z,31.13
2022-12-26T11:11:09.910Z,34.15
2022-12-26T11:13:41.105Z,33.22
2022-12-26T11:16:09.414Z,30.40
2022-12-26T11:18:43.818Z,28.17
2022-12-26T11:21:23.144Z,29.88
2022-12-26T11:23:56.749Z,30.92
2022-12-26T11:26:26.784Z,34.75
2022-12-26T11:29:11.836Z,29.45
2022-12-26T11:31:41.270Z,30.50
2022-12-26T11:34:10.685Z,30.55
2022-12-26T11:36:44.840Z,31.52
2022-12-26T11:39:23.045Z,29.70
2022-12-26T11:41:53.791Z,30.05
2022-12-26T11:44:27.502Z,30.38
2022-12-26T11:46:59.252Z,29.95
2022-12-26T11:49:31.758Z,26.27
2022-12-26T11:54:54.901Z,26.33
2022-12-26T11:57:28.273Z,30.95
2022-12-26T11:59:56.974Z,29.75
2022-12-26T12:02:32.789Z,28.60
2022-12-26T12:05:03.475Z,28.90
2022-12-26T12:08:00.957Z,27.70
2022-12-26T12:10:48.623Z,28.13
2022-12-26T12:13:26.343Z,30.98
2022-12-26T12:16:00.907Z,30.10
2022-12-26T12:18:40.135Z,30.27
2022-12-26T12:21:20.257Z,29.23
2022-12-26T12:23:57.872Z,28.95
2022-12-26T12:26:33.705Z,31.02
2022-12-26T12:29:24.248Z,36.55
2022-12-26T12:32:06.948Z,28.60
2022-12-26T12:34:52.121Z,33.08
2022-12-26T12:37:29.662Z,31.65
2022-12-26T12:40:24.447Z,31.33
2022-12-26T12:43:01.807Z,32.85
2022-12-26T12:45:33.640Z,31.65
2022-12-26T12:48:23.799Z,33.83
2022-12-26T12:50:58.780Z,33.33
2022-12-26T12:53:42.593Z,32.85
2022-12-26T12:56:28.929Z,33.17
2022-12-26T12:59:08.010Z,32.28
2022-12-26T13:01:40.846Z,32.08
2022-12-26T13:04:12.250Z,33.92
2022-12-26T13:06:43.704Z,35.53
2022-12-26T13:09:17.958Z,35.42
2022-12-26T13:11:49.886Z,36.10
2022-12-26T13:14:22.665Z,40.00
2022-12-26T13:16:56.048Z,37.28
2022-12-26T13:19:26.306Z,36.28
2022-12-26T13:21:58.412Z,42.25
2022-12-26T13:24:32.278Z,44.05
2022-12-26T13:27:05.473Z,37.45
2022-12-26T13:29:41.777Z,47.03
2022-12-26T13:32:21.127Z,44.83
2022-12-26T13:34:49.338Z,46.10
2022-12-26T13:37:54.745Z,44.90
2022-12-26T13:40:24.897Z,44.33
2022-12-26T13:43:19.730Z,45.80
2022-12-26T13:45:56.368Z,46.05
2022-12-26T13:52:01.735Z,42.92
2022-12-26T13:54:30.210Z,41.50
2022-12-26T13:57:36.707Z,42.22
2022-12-26T14:00:23.930Z,46.25
2022-12-26T14:03:45.234Z,45.25
2022-12-26T14:06:40.725Z,40.13
2022-12-26T14:09:21.495Z,40.33
2022-12-26T14:12:22.986Z,41.90
2022-12-26T14:18:09.666Z,38.63
2022-12-26T14:20:45.635Z,36.60
2022-12-26T14:23:36.281Z,41.42
2022-12-26T14:26:09.614Z,41.17
2022-12-26T14:28:53.463Z,41.42
2022-12-26T14:31:31.721Z,35.47
2022-12-26T14:34:10.852Z,37.20
2022-12-26T14:36:45.242Z,38.22
2022-12-26T14:39:25.849Z,36.25
2022-12-26T14:42:34.787Z,40.33
2022-12-26T14:47:56.262Z,44.92
2022-12-26T14:50:38.954Z,45.95
2022-12-26T14:53:31.543Z,44.60
2022-12-26T14:56:00.858Z,41.60
2022-12-26T14:58:42.670Z,45.08
2022-12-26T15:01:47.295Z,44.55
2022-12-26T15:04:52.078Z,43.67
2022-12-26T15:07:46.666Z,45.65
2022-12-26T15:10:45.571Z,40.13
2022-12-26T15:13:42.058Z,38.72
2022-12-26T15:16:40.026Z,41.58
2022-12-26T15:19:59.746Z,34.35
2022-12-26T15:23:02.431Z,37.83
2022-12-26T15:26:20.672Z,36.60
2022-12-26T15:29:04.568Z,36.78
2022-12-26T15:31:42.733Z,35.97
2022-12-26T15:34:31.109Z,33.42
2022-12-26T15:37:03.525Z,37.30
2022-12-26T15:39:39.079Z,35.50
2022-12-26T15:42:30.872Z,35.42
2022-12-26T15:45:15.015Z,35.60
2022-12-26T15:47:52.770Z,34.30
2022-12-26T15:50:27.743Z,36.00
2022-12-26T15:53:09.391Z,35.03
2022-12-26T15:56:06.874Z,37.13
2022-12-26T16:01:48.740Z,36.20
2022-12-26T16:04:22.170Z,35.40
2022-12-26T16:07:11.684Z,36.35
2022-12-26T16:09:44.625Z,37.38
2022-12-26T16:15:19.849Z,35.75
2022-12-26T16:17:48.978Z,35.95
2022-12-26T16:20:45.726Z,35.67
2022-12-26T16:23:15.068Z,34.50
2022-12-26T16:25:50.734Z,35.63
2022-12-26T16:28:24.556Z,39.35
2022-12-26T16:30:55.726Z,36.47
2022-12-26T16:33:24.582Z,36.50
2022-12-26T16:38:45.372Z,38.58
2022-12-26T16:41:20.507Z,37.67
2022-12-26T16:43:47.913Z,36.15
2022-12-26T16:46:18.152Z,36.85
2022-12-26T16:51:47.215Z,36.38
2022-12-26T16:54:37.313Z,39.78
2022-12-26T16:57:09.716Z,39.28
2022-12-26T17:02:46.781Z,42.22
2022-12-26T17:05:22.142Z,43.20
2022-12-26T17:07:52.149Z,42.05
2022-12-26T17:10:22.719Z,43.83
2022-12-26T17:15:51.353Z,44.25
2022-12-26T17:18:47.488Z,42.45
2022-12-26T17:21:22.542Z,43.67
2022-12-26T17:24:25.391Z,42.25
2022-12-26T17:27:09.700Z,40.97
2022-12-26T17:29:46.773Z,42.05
2022-12-26T17:32:16.787Z,40.80
2022-12-26T17:34:44.646Z,41.05
2022-12-26T17:37:23.667Z,42.63
2022-12-26T17:39:56.714Z,45.45
2022-12-26T17:45:22.325Z,44.80
2022-12-26T17:47:53.702Z,39.90
2022-12-26T17:50:21.272Z,44.97
2022-12-26T17:52:50.340Z,40.60
2022-12-26T17:55:19.780Z,42.75
2022-12-26T17:57:47.615Z,39.70
2022-12-26T18:03:15.891Z,38.03
2022-12-26T18:05:43.758Z,37.67
2022-12-26T18:08:25.698Z,38.13
2022-12-26T18:10:53.093Z,37.53
2022-12-26T18:13:20.456Z,36.58
2022-12-26T18:15:48.384Z,36.80
2022-12-26T18:18:24.854Z,38.28
2022-12-26T18:23:45.305Z,40.40
2022-12-26T18:26:18.681Z,36.92
2022-12-26T18:28:46.353Z,37.45
2022-12-26T18:31:15.166Z,42.33
2022-12-26T18:33:42.532Z,38.35
2022-12-26T18:36:11.665Z,39.47
2022-12-26T18:38:39.113Z,37.10
2022-12-26T18:41:07.866Z,36.28
2022-12-26T18:43:35.496Z,36.00
2022-12-26T18:46:02.936Z,40.20
2022-12-26T18:48:30.375Z,38.42
2022-12-26T18:50:57.741Z,36.58
2022-12-26T18:53:25.180Z,34.92
2022-12-26T18:55:53.316Z,37.45
2022-12-26T19:00:49.307Z,36.65
2022-12-26T19:06:11.315Z,34.47
2022-12-26T19:08:38.666Z,38.58
2022-12-26T19:11:06.064Z,36.25
2022-12-26T19:13:36.099Z,33.80
2022-12-26T19:16:03.573Z,36.92
2022-12-26T19:18:30.998Z,35.85
2022-12-26T19:20:58.574Z,33.95
2022-12-26T19:23:25.918Z,34.05
2022-12-26T19:25:53.305Z,33.40
2022-12-26T19:28:20.679Z,33.83
2022-12-26T19:33:40.738Z,39.80
2022-12-26T19:36:10.634Z,37.83
2022-12-26T19:38:38.363Z,33.65
2022-12-26T19:44:00.650Z,31.65
2022-12-26T19:49:21.648Z,33.53
2022-12-26T19:51:51.110Z,34.10
2022-12-26T19:54:21.642Z,32.70
2022-12-26T19:56:49.383Z,33.10
2022-12-26T19:59:18.700Z,32.83
2022-12-26T20:01:48.409Z,34.53
2022-12-26T20:04:15.990Z,32.75
2022-12-26T20:06:43.390Z,32.97
2022-12-26T20:09:15.598Z,31.77
2022-12-26T20:11:49.229Z,34.05
2022-12-26T20:14:19.002Z,34.38
2022-12-26T20:17:08.579Z,36.35
2022-12-26T20:22:29.121Z,48.65
2022-12-26T20:24:56.475Z,37.85
2022-12-26T20:30:15.754Z,43.28
2022-12-26T20:32:46.710Z,48.10
2022-12-26T20:35:14.325Z,52.72
2022-12-26T20:37:41.690Z,55.95
2022-12-26T20:40:10.044Z,55.03
2022-12-26T20:42:37.396Z,60.17
2022-12-26T20:45:05.660Z,54.88
2022-12-26T20:47:33.046Z,71.47
2022-12-26T20:50:05.593Z,69.35
2022-12-26T20:52:33.168Z,79.68
2022-12-26T20:55:03.618Z,65.38
2022-12-26T20:57:30.995Z,75.18
2022-12-26T20:59:58.353Z,64.45
2022-12-26T21:02:25.858Z,67.65
2022-12-26T21:04:53.722Z,69.65
2022-12-26T21:07:22.402Z,79.45
2022-12-26T21:09:49.752Z,67.45
2022-12-26T21:12:17.113Z,74.03
2022-12-26T21:14:44.461Z,74.32
2022-12-26T21:17:11.924Z,62.83
2022-12-26T21:19:39.360Z,69.15
2022-12-26T21:22:08.589Z,68.18
2022-12-26T21:24:37.282Z,73.28
2022-12-26T21:27:05.116Z,68.57
2022-12-26T21:29:34.711Z,57.72
2022-12-26T21:32:03.433Z,63.17
2022-12-26T21:37:42.290Z,73.75
2022-12-26T21:40:12.050Z,85.10
2022-12-26T21:42:39.426Z,66.70
2022-12-26T21:45:07.726Z,55.95
2022-12-26T21:50:26.671Z,78.50
2022-12-26T21:52:54.029Z,60.75
2022-12-26T21:55:27.667Z,57.75
2022-12-26T21:57:55.394Z,58.50
2022-12-26T22:00:24.218Z,59.88
2022-12-26T22:03:09.643Z,63.00
2022-12-26T22:05:43.552Z,61.13
2022-12-26T22:08:12.164Z,53.42
2022-12-26T22:13:54.715Z,49.97
2022-12-26T22:16:22.123Z,49.75
2022-12-26T22:21:40.525Z,51.53
2022-12-26T22:24:08.286Z,48.45
2022-12-26T22:26:36.967Z,46.20
2022-12-26T22:31:58.307Z,45.70
2022-12-26T22:37:17.590Z,1024.32
2022-12-26T22:39:44.979Z,1999.90
2022-12-26T22:42:13.653Z,1999.90
2022-12-26T22:44:41.014Z,1999.90
2022-12-26T22:47:08.363Z,1028.32
2022-12-26T22:49:39.594Z,1999.90
2022-12-26T22:52:11.077Z,1999.90
2022-12-26T22:54:45.542Z,1999.90
2022-12-26T22:57:15.049Z,1999.90
2022-12-26T23:00:07.750Z,1999.90
2022-12-26T23:02:30.995Z,1999.90
2022-12-26T23:05:02.544Z,1999.90
2022-12-26T23:07:30.774Z,1999.90
2022-12-26T23:12:55.665Z,1999.90
2022-12-26T23:15:25.469Z,1999.90
2022-12-26T23:18:16.117Z,1999.90
2022-12-26T23:21:01.498Z,1999.90
2022-12-26T23:26:20.739Z,1515.57
2022-12-26T23:29:07.101Z,58.97
2022-12-26T23:31:34.501Z,1999.90
2022-12-26T23:36:53.548Z,1512.93
2022-12-26T23:39:21.144Z,1999.90
2022-12-26T23:41:48.526Z,44.17
2022-12-26T23:47:09.491Z,51.47
2022-12-26T23:49:36.919Z,1999.90
2022-12-26T23:52:06.552Z,1999.90
2022-12-26T23:54:33.941Z,1999.90
2022-12-26T23:57:01.329Z,45.40
2022-12-26T23:59:30.058Z,42.38
